sensor_id;sensor_type;location;lat;lon;timestamp;temperature;humidity
48806;DHT22;34625;47.176;27.548;2023-08-01T00:00:56;28.30;57.50
48806;DHT22;34625;47.176;27.548;2023-08-01T00:03:22;28.40;57.50
48806;DHT22;34625;47.176;27.548;2023-08-01T00:05:48;28.40;57.60
48806;DHT22;34625;47.176;27.548;2023-08-01T00:08:15;28.40;57.50
48806;DHT22;34625;47.176;27.548;2023-08-01T00:10:41;28.40;57.60
48806;DHT22;34625;47.176;27.548;2023-08-01T00:13:08;28.50;57.60
48806;DHT22;34625;47.176;27.548;2023-08-01T00:15:35;28.30;57.60
48806;DHT22;34625;47.176;27.548;2023-08-01T00:18:01;28.30;57.60
48806;DHT22;34625;47.176;27.548;2023-08-01T00:20:27;28.40;57.70
48806;DHT22;34625;47.176;27.548;2023-08-01T00:22:54;28.50;57.70
48806;DHT22;34625;47.176;27.548;2023-08-01T00:25:22;28.40;57.70
48806;DHT22;34625;47.176;27.548;2023-08-01T00:27:48;28.50;57.70
48806;DHT22;34625;47.176;27.548;2023-08-01T00:30:15;28.40;57.70
48806;DHT22;34625;47.176;27.548;2023-08-01T00:32:42;28.40;57.70
48806;DHT22;34625;47.176;27.548;2023-08-01T00:35:08;28.40;57.70
48806;DHT22;34625;47.176;27.548;2023-08-01T00:37:34;28.50;57.70
48806;DHT22;34625;47.176;27.548;2023-08-01T00:40:01;28.40;57.70
48806;DHT22;34625;47.176;27.548;2023-08-01T00:42:27;28.40;57.80
48806;DHT22;34625;47.176;27.548;2023-08-01T00:44:53;28.40;57.70
48806;DHT22;34625;47.176;27.548;2023-08-01T00:47:20;28.50;57.70
48806;DHT22;34625;47.176;27.548;2023-08-01T00:49:46;28.50;57.60
48806;DHT22;34625;47.176;27.548;2023-08-01T00:52:13;28.40;57.60
48806;DHT22;34625;47.176;27.548;2023-08-01T00:54:40;28.40;57.60
48806;DHT22;34625;47.176;27.548;2023-08-01T00:57:06;28.40;57.60
48806;DHT22;34625;47.176;27.548;2023-08-01T00:59:33;28.50;57.60
48806;DHT22;34625;47.176;27.548;2023-08-01T01:02:00;28.50;57.50
48806;DHT22;34625;47.176;27.548;2023-08-01T01:04:27;28.30;57.60
48806;DHT22;34625;47.176;27.548;2023-08-01T01:07:04;28.40;57.50
48806;DHT22;34625;47.176;27.548;2023-08-01T01:09:31;28.30;57.50
48806;DHT22;34625;47.176;27.548;2023-08-01T01:12:01;28.30;57.50
48806;DHT22;34625;47.176;27.548;2023-08-01T01:14:27;28.40;57.60
48806;DHT22;34625;47.176;27.548;2023-08-01T01:16:54;28.30;57.60
48806;DHT22;34625;47.176;27.548;2023-08-01T01:19:20;28.40;57.60
48806;DHT22;34625;47.176;27.548;2023-08-01T01:22:17;28.40;57.70
48806;DHT22;34625;47.176;27.548;2023-08-01T01:24:46;28.30;57.70
48806;DHT22;34625;47.176;27.548;2023-08-01T01:27:14;28.30;57.70
48806;DHT22;34625;47.176;27.548;2023-08-01T01:29:55;28.20;57.80
48806;DHT22;34625;47.176;27.548;2023-08-01T01:32:21;28.30;57.80
48806;DHT22;34625;47.176;27.548;2023-08-01T01:34:48;28.30;57.80
48806;DHT22;34625;47.176;27.548;2023-08-01T01:37:14;28.30;57.80
48806;DHT22;34625;47.176;27.548;2023-08-01T01:39:43;28.50;57.80
48806;DHT22;34625;47.176;27.548;2023-08-01T01:42:09;28.40;57.80
48806;DHT22;34625;47.176;27.548;2023-08-01T01:44:35;28.40;57.90
48806;DHT22;34625;47.176;27.548;2023-08-01T01:47:01;28.40;57.90
48806;DHT22;34625;47.176;27.548;2023-08-01T01:49:28;28.40;57.90
48806;DHT22;34625;47.176;27.548;2023-08-01T01:51:55;28.30;57.90
48806;DHT22;34625;47.176;27.548;2023-08-01T01:54:21;28.40;57.90
48806;DHT22;34625;47.176;27.548;2023-08-01T01:56:48;28.30;57.90
48806;DHT22;34625;47.176;27.548;2023-08-01T01:59:14;28.30;57.80
48806;DHT22;34625;47.176;27.548;2023-08-01T02:01:41;28.40;57.80
48806;DHT22;34625;47.176;27.548;2023-08-01T02:04:07;28.40;57.80
48806;DHT22;34625;47.176;27.548;2023-08-01T02:06:33;28.40;57.70
48806;DHT22;34625;47.176;27.548;2023-08-01T02:09:00;28.40;57.70
48806;DHT22;34625;47.176;27.548;2023-08-01T02:11:29;28.40;57.70
48806;DHT22;34625;47.176;27.548;2023-08-01T02:13:55;28.20;57.70
48806;DHT22;34625;47.176;27.548;2023-08-01T02:16:21;28.30;57.70
48806;DHT22;34625;47.176;27.548;2023-08-01T02:18:47;28.30;57.70
48806;DHT22;34625;47.176;27.548;2023-08-01T02:21:13;28.20;57.70
48806;DHT22;34625;47.176;27.548;2023-08-01T02:23:39;28.30;57.70
48806;DHT22;34625;47.176;27.548;2023-08-01T02:26:05;28.30;57.70
48806;DHT22;34625;47.176;27.548;2023-08-01T02:28:33;28.10;57.80
48806;DHT22;34625;47.176;27.548;2023-08-01T02:31:00;28.20;57.80
48806;DHT22;34625;47.176;27.548;2023-08-01T02:33:26;28.10;57.80
48806;DHT22;34625;47.176;27.548;2023-08-01T02:35:52;28.20;57.80
48806;DHT22;34625;47.176;27.548;2023-08-01T02:38:18;28.20;57.80
48806;DHT22;34625;47.176;27.548;2023-08-01T02:40:44;28.30;57.80
48806;DHT22;34625;47.176;27.548;2023-08-01T02:43:10;28.30;57.80
48806;DHT22;34625;47.176;27.548;2023-08-01T02:45:36;28.10;57.80
48806;DHT22;34625;47.176;27.548;2023-08-01T02:48:03;28.20;57.80
48806;DHT22;34625;47.176;27.548;2023-08-01T02:50:29;28.20;57.90
48806;DHT22;34625;47.176;27.548;2023-08-01T02:52:57;28.10;57.90
48806;DHT22;34625;47.176;27.548;2023-08-01T02:55:23;28.30;57.90
48806;DHT22;34625;47.176;27.548;2023-08-01T02:57:50;28.20;57.90
48806;DHT22;34625;47.176;27.548;2023-08-01T03:00:16;28.20;57.90
48806;DHT22;34625;47.176;27.548;2023-08-01T03:02:43;28.30;57.90
48806;DHT22;34625;47.176;27.548;2023-08-01T03:05:09;28.30;57.90
48806;DHT22;34625;47.176;27.548;2023-08-01T03:07:36;28.20;57.90
48806;DHT22;34625;47.176;27.548;2023-08-01T03:10:02;28.20;57.90
48806;DHT22;34625;47.176;27.548;2023-08-01T03:12:28;28.50;57.90
48806;DHT22;34625;47.176;27.548;2023-08-01T03:14:54;28.30;57.90
48806;DHT22;34625;47.176;27.548;2023-08-01T03:17:21;28.30;57.80
48806;DHT22;34625;47.176;27.548;2023-08-01T03:19:47;28.20;57.80
48806;DHT22;34625;47.176;27.548;2023-08-01T03:22:14;28.20;57.80
48806;DHT22;34625;47.176;27.548;2023-08-01T03:24:41;28.30;57.80
48806;DHT22;34625;47.176;27.548;2023-08-01T03:27:07;28.20;57.80
48806;DHT22;34625;47.176;27.548;2023-08-01T03:29:33;28.20;57.70
48806;DHT22;34625;47.176;27.548;2023-08-01T03:32:00;28.30;57.70
48806;DHT22;34625;47.176;27.548;2023-08-01T03:34:26;28.10;57.70
48806;DHT22;34625;47.176;27.548;2023-08-01T03:36:52;28.10;57.70
48806;DHT22;34625;47.176;27.548;2023-08-01T03:39:18;28.10;57.80
48806;DHT22;34625;47.176;27.548;2023-08-01T03:41:45;28.10;57.70
48806;DHT22;34625;47.176;27.548;2023-08-01T03:44:12;28.00;57.80
48806;DHT22;34625;47.176;27.548;2023-08-01T03:46:38;28.10;57.80
48806;DHT22;34625;47.176;27.548;2023-08-01T03:49:04;28.10;57.80
48806;DHT22;34625;47.176;27.548;2023-08-01T03:51:30;28.10;57.80
48806;DHT22;34625;47.176;27.548;2023-08-01T03:53:56;28.10;57.80
48806;DHT22;34625;47.176;27.548;2023-08-01T03:56:23;28.20;57.80
48806;DHT22;34625;47.176;27.548;2023-08-01T03:58:49;28.10;57.80
48806;DHT22;34625;47.176;27.548;2023-08-01T04:01:15;28.10;57.80
48806;DHT22;34625;47.176;27.548;2023-08-01T04:03:42;28.10;57.80
48806;DHT22;34625;47.176;27.548;2023-08-01T04:06:08;28.30;57.80
48806;DHT22;34625;47.176;27.548;2023-08-01T04:08:34;28.10;57.80
48806;DHT22;34625;47.176;27.548;2023-08-01T04:11:09;28.10;57.80
48806;DHT22;34625;47.176;27.548;2023-08-01T04:13:37;28.30;57.90
48806;DHT22;34625;47.176;27.548;2023-08-01T04:16:03;28.10;57.80
48806;DHT22;34625;47.176;27.548;2023-08-01T04:18:29;28.20;57.90
48806;DHT22;34625;47.176;27.548;2023-08-01T04:20:55;28.10;57.90
48806;DHT22;34625;47.176;27.548;2023-08-01T04:23:21;28.20;57.80
48806;DHT22;34625;47.176;27.548;2023-08-01T04:25:48;28.20;57.90
48806;DHT22;34625;47.176;27.548;2023-08-01T04:28:14;28.20;57.90
48806;DHT22;34625;47.176;27.548;2023-08-01T04:30:40;28.20;57.80
48806;DHT22;34625;47.176;27.548;2023-08-01T04:33:06;28.30;57.80
48806;DHT22;34625;47.176;27.548;2023-08-01T04:35:32;28.30;57.80
48806;DHT22;34625;47.176;27.548;2023-08-01T04:37:58;28.30;57.80
48806;DHT22;34625;47.176;27.548;2023-08-01T04:40:24;28.20;57.80
48806;DHT22;34625;47.176;27.548;2023-08-01T04:42:50;28.30;57.80
48806;DHT22;34625;47.176;27.548;2023-08-01T04:45:17;28.30;57.80
48806;DHT22;34625;47.176;27.548;2023-08-01T04:47:43;28.30;57.70
48806;DHT22;34625;47.176;27.548;2023-08-01T04:50:10;28.20;57.70
48806;DHT22;34625;47.176;27.548;2023-08-01T04:52:36;28.10;57.70
48806;DHT22;34625;47.176;27.548;2023-08-01T04:55:02;28.20;57.60
48806;DHT22;34625;47.176;27.548;2023-08-01T04:57:29;28.20;57.60
48806;DHT22;34625;47.176;27.548;2023-08-01T04:59:55;28.10;57.60
48806;DHT22;34625;47.176;27.548;2023-08-01T05:02:21;28.10;57.70
48806;DHT22;34625;47.176;27.548;2023-08-01T05:04:48;28.10;57.80
48806;DHT22;34625;47.176;27.548;2023-08-01T05:07:14;28.10;57.80
48806;DHT22;34625;47.176;27.548;2023-08-01T05:09:40;28.20;57.80
48806;DHT22;34625;47.176;27.548;2023-08-01T05:12:06;28.10;57.80
48806;DHT22;34625;47.176;27.548;2023-08-01T05:14:32;28.10;57.80
48806;DHT22;34625;47.176;27.548;2023-08-01T05:16:58;28.10;57.80
48806;DHT22;34625;47.176;27.548;2023-08-01T05:19:24;28.20;57.90
48806;DHT22;34625;47.176;27.548;2023-08-01T05:21:50;28.10;57.90
48806;DHT22;34625;47.176;27.548;2023-08-01T05:24:16;28.20;57.90
48806;DHT22;34625;47.176;27.548;2023-08-01T05:26:43;28.10;57.90
48806;DHT22;34625;47.176;27.548;2023-08-01T05:29:09;28.30;57.90
48806;DHT22;34625;47.176;27.548;2023-08-01T05:31:35;28.20;57.90
48806;DHT22;34625;47.176;27.548;2023-08-01T05:34:01;28.30;57.90
48806;DHT22;34625;47.176;27.548;2023-08-01T05:36:27;28.20;57.90
48806;DHT22;34625;47.176;27.548;2023-08-01T05:38:53;28.20;57.90
48806;DHT22;34625;47.176;27.548;2023-08-01T05:41:19;28.20;57.90
48806;DHT22;34625;47.176;27.548;2023-08-01T05:43:48;28.20;57.90
48806;DHT22;34625;47.176;27.548;2023-08-01T05:46:14;28.30;57.80
48806;DHT22;34625;47.176;27.548;2023-08-01T05:48:40;28.20;57.80
48806;DHT22;34625;47.176;27.548;2023-08-01T05:51:06;28.30;57.80
48806;DHT22;34625;47.176;27.548;2023-08-01T05:53:32;28.20;57.60
48806;DHT22;34625;47.176;27.548;2023-08-01T05:55:59;28.20;57.60
48806;DHT22;34625;47.176;27.548;2023-08-01T05:58:25;28.10;57.70
48806;DHT22;34625;47.176;27.548;2023-08-01T06:00:51;28.10;57.70
48806;DHT22;34625;47.176;27.548;2023-08-01T06:03:17;28.10;57.50
48806;DHT22;34625;47.176;27.548;2023-08-01T06:05:43;28.20;57.00
48806;DHT22;34625;47.176;27.548;2023-08-01T06:08:09;28.10;56.90
48806;DHT22;34625;47.176;27.548;2023-08-01T06:10:36;28.00;56.90
48806;DHT22;34625;47.176;27.548;2023-08-01T06:13:02;28.00;56.90
48806;DHT22;34625;47.176;27.548;2023-08-01T06:15:28;28.00;56.80
48806;DHT22;34625;47.176;27.548;2023-08-01T06:17:54;28.10;56.70
48806;DHT22;34625;47.176;27.548;2023-08-01T06:20:21;28.00;56.70
48806;DHT22;34625;47.176;27.548;2023-08-01T06:22:47;28.00;56.70
48806;DHT22;34625;47.176;27.548;2023-08-01T06:25:13;28.10;56.70
48806;DHT22;34625;47.176;27.548;2023-08-01T06:27:39;28.10;56.80
48806;DHT22;34625;47.176;27.548;2023-08-01T06:30:05;28.10;56.80
48806;DHT22;34625;47.176;27.548;2023-08-01T06:32:32;28.20;56.80
48806;DHT22;34625;47.176;27.548;2023-08-01T06:34:58;28.20;56.80
48806;DHT22;34625;47.176;27.548;2023-08-01T06:37:24;28.10;56.80
48806;DHT22;34625;47.176;27.548;2023-08-01T06:39:50;28.10;56.80
48806;DHT22;34625;47.176;27.548;2023-08-01T06:42:16;28.10;56.80
48806;DHT22;34625;47.176;27.548;2023-08-01T06:44:43;28.10;56.80
48806;DHT22;34625;47.176;27.548;2023-08-01T06:47:09;28.10;56.80
48806;DHT22;34625;47.176;27.548;2023-08-01T06:49:42;28.10;56.70
48806;DHT22;34625;47.176;27.548;2023-08-01T06:52:08;28.10;56.70
48806;DHT22;34625;47.176;27.548;2023-08-01T06:54:34;28.20;56.70
48806;DHT22;34625;47.176;27.548;2023-08-01T06:57:00;28.30;56.60
48806;DHT22;34625;47.176;27.548;2023-08-01T06:59:26;28.10;56.60
48806;DHT22;34625;47.176;27.548;2023-08-01T07:01:52;28.10;56.70
48806;DHT22;34625;47.176;27.548;2023-08-01T07:04:18;28.10;56.70
48806;DHT22;34625;47.176;27.548;2023-08-01T07:06:44;28.10;56.60
48806;DHT22;34625;47.176;27.548;2023-08-01T07:09:10;28.00;56.70
48806;DHT22;34625;47.176;27.548;2023-08-01T07:11:40;28.00;56.70
48806;DHT22;34625;47.176;27.548;2023-08-01T07:14:06;28.10;56.70
48806;DHT22;34625;47.176;27.548;2023-08-01T07:16:53;28.10;56.70
48806;DHT22;34625;47.176;27.548;2023-08-01T07:19:19;28.00;56.70
48806;DHT22;34625;47.176;27.548;2023-08-01T07:21:45;28.10;56.80
48806;DHT22;34625;47.176;27.548;2023-08-01T07:24:13;28.00;56.80
48806;DHT22;34625;47.176;27.548;2023-08-01T07:26:40;27.90;56.40
48806;DHT22;34625;47.176;27.548;2023-08-01T07:29:06;28.00;57.00
48806;DHT22;34625;47.176;27.548;2023-08-01T07:31:39;28.00;57.00
48806;DHT22;34625;47.176;27.548;2023-08-01T07:34:06;28.00;57.00
48806;DHT22;34625;47.176;27.548;2023-08-01T07:36:32;27.90;56.50
48806;DHT22;34625;47.176;27.548;2023-08-01T07:38:58;28.00;57.10
48806;DHT22;34625;47.176;27.548;2023-08-01T07:41:24;28.00;57.20
48806;DHT22;34625;47.176;27.548;2023-08-01T07:43:50;27.90;56.60
48806;DHT22;34625;47.176;27.548;2023-08-01T07:46:16;27.90;56.60
48806;DHT22;34625;47.176;27.548;2023-08-01T07:48:43;28.00;57.20
48806;DHT22;34625;47.176;27.548;2023-08-01T07:51:09;28.00;57.20
48806;DHT22;34625;47.176;27.548;2023-08-01T07:53:37;28.00;57.20
48806;DHT22;34625;47.176;27.548;2023-08-01T07:56:03;27.90;56.70
48806;DHT22;34625;47.176;27.548;2023-08-01T07:58:32;28.00;57.20
48806;DHT22;34625;47.176;27.548;2023-08-01T08:01:03;28.00;57.20
48806;DHT22;34625;47.176;27.548;2023-08-01T08:03:30;28.00;58.10
48806;DHT22;34625;47.176;27.548;2023-08-01T08:05:56;28.00;58.10
48806;DHT22;34625;47.176;27.548;2023-08-01T08:08:22;28.20;58.40
48806;DHT22;34625;47.176;27.548;2023-08-01T08:10:48;28.30;58.40
48806;DHT22;34625;47.176;27.548;2023-08-01T08:13:15;28.40;58.40
48806;DHT22;34625;47.176;27.548;2023-08-01T08:15:41;28.50;58.50
48806;DHT22;34625;47.176;27.548;2023-08-01T08:18:07;28.50;58.20
48806;DHT22;34625;47.176;27.548;2023-08-01T08:20:41;28.60;58.20
48806;DHT22;34625;47.176;27.548;2023-08-01T08:23:09;28.40;58.50
48806;DHT22;34625;47.176;27.548;2023-08-01T08:25:35;28.50;58.30
48806;DHT22;34625;47.176;27.548;2023-08-01T08:28:01;28.50;58.30
48806;DHT22;34625;47.176;27.548;2023-08-01T08:30:27;28.60;58.40
48806;DHT22;34625;47.176;27.548;2023-08-01T08:32:54;28.60;58.50
48806;DHT22;34625;47.176;27.548;2023-08-01T08:35:20;28.60;58.20
48806;DHT22;34625;47.176;27.548;2023-08-01T08:37:46;28.60;58.10
48806;DHT22;34625;47.176;27.548;2023-08-01T08:40:13;28.70;58.20
48806;DHT22;34625;47.176;27.548;2023-08-01T08:42:40;28.60;58.50
48806;DHT22;34625;47.176;27.548;2023-08-01T08:45:06;28.70;58.70
48806;DHT22;34625;47.176;27.548;2023-08-01T08:47:36;28.70;58.40
48806;DHT22;34625;47.176;27.548;2023-08-01T08:50:05;28.70;58.20
48806;DHT22;34625;47.176;27.548;2023-08-01T08:52:31;28.70;58.20
48806;DHT22;34625;47.176;27.548;2023-08-01T08:55:26;28.70;58.10
48806;DHT22;34625;47.176;27.548;2023-08-01T09:00:38;28.80;57.60
48806;DHT22;34625;47.176;27.548;2023-08-01T09:03:04;28.80;57.50
48806;DHT22;34625;47.176;27.548;2023-08-01T09:05:40;28.70;57.20
48806;DHT22;34625;47.176;27.548;2023-08-01T09:08:15;28.80;56.60
48806;DHT22;34625;47.176;27.548;2023-08-01T09:10:43;28.80;55.90
48806;DHT22;34625;47.176;27.548;2023-08-01T09:13:09;28.70;55.30
48806;DHT22;34625;47.176;27.548;2023-08-01T09:15:35;28.80;54.80
48806;DHT22;34625;47.176;27.548;2023-08-01T09:18:06;28.70;54.30
48806;DHT22;34625;47.176;27.548;2023-08-01T09:20:51;28.90;53.80
48806;DHT22;34625;47.176;27.548;2023-08-01T09:23:17;28.90;53.30
48806;DHT22;34625;47.176;27.548;2023-08-01T09:25:44;28.80;52.90
48806;DHT22;34625;47.176;27.548;2023-08-01T09:28:22;28.70;52.50
48806;DHT22;34625;47.176;27.548;2023-08-01T09:30:53;28.90;52.10
48806;DHT22;34625;47.176;27.548;2023-08-01T09:33:23;29.00;52.30
48806;DHT22;34625;47.176;27.548;2023-08-01T09:36:09;28.80;51.50
48806;DHT22;34625;47.176;27.548;2023-08-01T09:38:37;28.90;51.40
48806;DHT22;34625;47.176;27.548;2023-08-01T09:41:04;28.80;51.70
48806;DHT22;34625;47.176;27.548;2023-08-01T09:43:37;28.70;52.10
48806;DHT22;34625;47.176;27.548;2023-08-01T09:46:06;28.80;52.60
48806;DHT22;34625;47.176;27.548;2023-08-01T09:48:32;28.80;52.90
48806;DHT22;34625;47.176;27.548;2023-08-01T09:51:09;28.90;53.00
48806;DHT22;34625;47.176;27.548;2023-08-01T09:53:47;28.90;53.10
48806;DHT22;34625;47.176;27.548;2023-08-01T09:56:24;28.80;53.50
48806;DHT22;34625;47.176;27.548;2023-08-01T09:58:53;28.80;53.60
48806;DHT22;34625;47.176;27.548;2023-08-01T10:01:21;28.80;53.40
48806;DHT22;34625;47.176;27.548;2023-08-01T10:03:52;28.70;53.60
48806;DHT22;34625;47.176;27.548;2023-08-01T10:06:23;28.70;53.60
48806;DHT22;34625;47.176;27.548;2023-08-01T10:08:51;28.80;53.60
48806;DHT22;34625;47.176;27.548;2023-08-01T10:11:22;28.90;53.60
48806;DHT22;34625;47.176;27.548;2023-08-01T10:13:49;28.90;53.70
48806;DHT22;34625;47.176;27.548;2023-08-01T10:16:16;28.90;53.80
48806;DHT22;34625;47.176;27.548;2023-08-01T10:18:43;28.70;53.90
48806;DHT22;34625;47.176;27.548;2023-08-01T10:21:12;28.90;54.00
48806;DHT22;34625;47.176;27.548;2023-08-01T10:23:39;28.90;54.00
48806;DHT22;34625;47.176;27.548;2023-08-01T10:26:08;28.80;54.20
48806;DHT22;34625;47.176;27.548;2023-08-01T10:28:36;28.90;54.20
48806;DHT22;34625;47.176;27.548;2023-08-01T10:31:13;28.90;54.20
48806;DHT22;34625;47.176;27.548;2023-08-01T10:33:41;28.80;54.30
48806;DHT22;34625;47.176;27.548;2023-08-01T10:36:25;28.70;54.30
48806;DHT22;34625;47.176;27.548;2023-08-01T10:38:56;28.70;54.30
48806;DHT22;34625;47.176;27.548;2023-08-01T10:41:34;28.80;54.40
48806;DHT22;34625;47.176;27.548;2023-08-01T10:44:10;28.90;54.40
48806;DHT22;34625;47.176;27.548;2023-08-01T10:49:14;28.80;54.40
48806;DHT22;34625;47.176;27.548;2023-08-01T10:51:40;28.80;54.50
48806;DHT22;34625;47.176;27.548;2023-08-01T10:54:06;28.80;54.50
48806;DHT22;34625;47.176;27.548;2023-08-01T10:56:33;28.80;54.50
48806;DHT22;34625;47.176;27.548;2023-08-01T10:58:59;28.80;54.50
48806;DHT22;34625;47.176;27.548;2023-08-01T11:01:25;28.80;54.50
48806;DHT22;34625;47.176;27.548;2023-08-01T11:03:54;28.80;54.60
48806;DHT22;34625;47.176;27.548;2023-08-01T11:06:20;28.70;54.50
48806;DHT22;34625;47.176;27.548;2023-08-01T11:08:46;28.80;54.50
48806;DHT22;34625;47.176;27.548;2023-08-01T11:11:14;28.80;54.30
48806;DHT22;34625;47.176;27.548;2023-08-01T11:13:40;28.80;54.40
48806;DHT22;34625;47.176;27.548;2023-08-01T11:16:07;28.70;54.60
48806;DHT22;34625;47.176;27.548;2023-08-01T11:18:43;28.70;54.50
48806;DHT22;34625;47.176;27.548;2023-08-01T11:21:09;28.70;54.20
48806;DHT22;34625;47.176;27.548;2023-08-01T11:23:36;28.60;53.70
48806;DHT22;34625;47.176;27.548;2023-08-01T11:26:08;28.70;53.50
48806;DHT22;34625;47.176;27.548;2023-08-01T11:28:35;28.60;53.10
48806;DHT22;34625;47.176;27.548;2023-08-01T11:31:01;28.70;53.90
48806;DHT22;34625;47.176;27.548;2023-08-01T11:33:27;28.80;54.50
48806;DHT22;34625;47.176;27.548;2023-08-01T11:35:54;29.00;57.90
48806;DHT22;34625;47.176;27.548;2023-08-01T11:38:29;28.90;55.90
48806;DHT22;34625;47.176;27.548;2023-08-01T11:40:57;28.90;53.70
48806;DHT22;34625;47.176;27.548;2023-08-01T11:43:24;28.90;53.20
48806;DHT22;34625;47.176;27.548;2023-08-01T11:45:51;28.70;52.80
48806;DHT22;34625;47.176;27.548;2023-08-01T11:48:18;28.90;52.50
48806;DHT22;34625;47.176;27.548;2023-08-01T11:50:45;28.90;51.70
48806;DHT22;34625;47.176;27.548;2023-08-01T11:53:21;28.80;51.20
48806;DHT22;34625;47.176;27.548;2023-08-01T11:55:59;28.80;51.30
48806;DHT22;34625;47.176;27.548;2023-08-01T11:58:30;28.70;52.10
48806;DHT22;34625;47.176;27.548;2023-08-01T12:01:07;28.80;51.80
48806;DHT22;34625;47.176;27.548;2023-08-01T12:03:50;28.80;51.50
48806;DHT22;34625;47.176;27.548;2023-08-01T12:06:18;28.80;52.10
48806;DHT22;34625;47.176;27.548;2023-08-01T12:08:54;28.90;52.60
48806;DHT22;34625;47.176;27.548;2023-08-01T12:11:31;28.90;53.60
48806;DHT22;34625;47.176;27.548;2023-08-01T12:14:02;29.00;52.00
48806;DHT22;34625;47.176;27.548;2023-08-01T12:16:29;28.90;50.30
48806;DHT22;34625;47.176;27.548;2023-08-01T12:18:55;29.00;50.50
48806;DHT22;34625;47.176;27.548;2023-08-01T12:21:21;29.00;50.20
48806;DHT22;34625;47.176;27.548;2023-08-01T12:23:47;28.90;49.60
48806;DHT22;34625;47.176;27.548;2023-08-01T12:26:13;28.90;49.60
48806;DHT22;34625;47.176;27.548;2023-08-01T12:28:40;28.80;49.70
48806;DHT22;34625;47.176;27.548;2023-08-01T12:31:06;28.80;49.40
48806;DHT22;34625;47.176;27.548;2023-08-01T12:33:32;28.80;49.10
48806;DHT22;34625;47.176;27.548;2023-08-01T12:36:02;28.70;48.80
48806;DHT22;34625;47.176;27.548;2023-08-01T12:38:29;28.80;48.70
48806;DHT22;34625;47.176;27.548;2023-08-01T12:40:55;28.80;48.20
48806;DHT22;34625;47.176;27.548;2023-08-01T12:43:21;28.90;48.00
48806;DHT22;34625;47.176;27.548;2023-08-01T12:45:48;28.80;47.90
48806;DHT22;34625;47.176;27.548;2023-08-01T12:48:14;28.80;47.50
48806;DHT22;34625;47.176;27.548;2023-08-01T12:50:47;28.80;47.40
48806;DHT22;34625;47.176;27.548;2023-08-01T12:53:14;28.70;47.60
48806;DHT22;34625;47.176;27.548;2023-08-01T12:55:47;28.70;47.70
48806;DHT22;34625;47.176;27.548;2023-08-01T12:58:14;28.70;47.90
48806;DHT22;34625;47.176;27.548;2023-08-01T13:00:41;28.60;48.30
48806;DHT22;34625;47.176;27.548;2023-08-01T13:03:08;28.70;48.30
48806;DHT22;34625;47.176;27.548;2023-08-01T13:05:35;28.70;48.00
48806;DHT22;34625;47.176;27.548;2023-08-01T13:08:10;28.60;47.70
48806;DHT22;34625;47.176;27.548;2023-08-01T13:10:38;28.70;47.80
48806;DHT22;34625;47.176;27.548;2023-08-01T13:13:04;28.70;47.90
48806;DHT22;34625;47.176;27.548;2023-08-01T13:15:31;28.80;48.10
48806;DHT22;34625;47.176;27.548;2023-08-01T13:17:57;28.70;48.40
48806;DHT22;34625;47.176;27.548;2023-08-01T13:20:23;28.70;48.60
48806;DHT22;34625;47.176;27.548;2023-08-01T13:22:50;28.80;48.80
48806;DHT22;34625;47.176;27.548;2023-08-01T13:25:18;28.70;48.90
48806;DHT22;34625;47.176;27.548;2023-08-01T13:27:44;28.80;49.10
48806;DHT22;34625;47.176;27.548;2023-08-01T13:30:10;28.80;49.30
48806;DHT22;34625;47.176;27.548;2023-08-01T13:32:40;28.70;49.70
48806;DHT22;34625;47.176;27.548;2023-08-01T13:35:07;28.80;50.40
48806;DHT22;34625;47.176;27.548;2023-08-01T13:37:33;28.80;53.60
48806;DHT22;34625;47.176;27.548;2023-08-01T13:40:01;28.80;52.00
48806;DHT22;34625;47.176;27.548;2023-08-01T13:42:27;28.80;51.70
48806;DHT22;34625;47.176;27.548;2023-08-01T13:45:19;28.90;51.90
48806;DHT22;34625;47.176;27.548;2023-08-01T13:47:45;28.90;51.70
48806;DHT22;34625;47.176;27.548;2023-08-01T13:50:11;28.90;51.80
48806;DHT22;34625;47.176;27.548;2023-08-01T13:52:38;28.90;51.90
48806;DHT22;34625;47.176;27.548;2023-08-01T13:55:04;28.90;51.80
48806;DHT22;34625;47.176;27.548;2023-08-01T13:57:32;28.80;51.80
48806;DHT22;34625;47.176;27.548;2023-08-01T13:59:58;28.90;54.00
48806;DHT22;34625;47.176;27.548;2023-08-01T14:02:25;28.90;55.80
48806;DHT22;34625;47.176;27.548;2023-08-01T14:04:51;28.90;55.40
48806;DHT22;34625;47.176;27.548;2023-08-01T14:07:18;29.00;55.30
48806;DHT22;34625;47.176;27.548;2023-08-01T14:09:44;28.80;54.40
48806;DHT22;34625;47.176;27.548;2023-08-01T14:12:10;29.00;54.70
48806;DHT22;34625;47.176;27.548;2023-08-01T14:14:36;28.90;53.60
48806;DHT22;34625;47.176;27.548;2023-08-01T14:17:02;29.00;52.10
48806;DHT22;34625;47.176;27.548;2023-08-01T14:19:29;28.90;50.00
48806;DHT22;34625;47.176;27.548;2023-08-01T14:21:56;29.00;49.60
48806;DHT22;34625;47.176;27.548;2023-08-01T14:24:23;28.90;48.30
48806;DHT22;34625;47.176;27.548;2023-08-01T14:26:49;28.90;47.70
48806;DHT22;34625;47.176;27.548;2023-08-01T14:29:18;28.90;47.10
48806;DHT22;34625;47.176;27.548;2023-08-01T14:31:49;28.90;46.80
48806;DHT22;34625;47.176;27.548;2023-08-01T14:34:15;28.90;46.60
48806;DHT22;34625;47.176;27.548;2023-08-01T14:36:41;29.00;46.80
48806;DHT22;34625;47.176;27.548;2023-08-01T14:39:07;29.00;46.50
48806;DHT22;34625;47.176;27.548;2023-08-01T14:41:33;28.90;45.60
48806;DHT22;34625;47.176;27.548;2023-08-01T14:44:00;28.90;45.50
48806;DHT22;34625;47.176;27.548;2023-08-01T14:46:26;28.90;45.50
48806;DHT22;34625;47.176;27.548;2023-08-01T14:48:55;28.90;45.50
48806;DHT22;34625;47.176;27.548;2023-08-01T14:51:22;28.90;45.60
48806;DHT22;34625;47.176;27.548;2023-08-01T14:53:48;28.90;45.80
48806;DHT22;34625;47.176;27.548;2023-08-01T14:56:14;28.80;46.10
48806;DHT22;34625;47.176;27.548;2023-08-01T14:58:40;28.90;46.30
48806;DHT22;34625;47.176;27.548;2023-08-01T15:01:15;29.00;47.20
48806;DHT22;34625;47.176;27.548;2023-08-01T15:03:55;28.80;47.90
48806;DHT22;34625;47.176;27.548;2023-08-01T15:06:22;28.90;48.40
48806;DHT22;34625;47.176;27.548;2023-08-01T15:08:48;28.90;49.80
48806;DHT22;34625;47.176;27.548;2023-08-01T15:11:15;28.90;51.50
48806;DHT22;34625;47.176;27.548;2023-08-01T15:13:42;29.00;50.40
48806;DHT22;34625;47.176;27.548;2023-08-01T15:16:11;29.00;49.90
48806;DHT22;34625;47.176;27.548;2023-08-01T15:18:37;28.90;49.30
48806;DHT22;34625;47.176;27.548;2023-08-01T15:21:03;29.00;49.80
48806;DHT22;34625;47.176;27.548;2023-08-01T15:23:29;28.90;49.20